createdAt,value
2019-02-25T00:06:21.543Z,38.57
2019-02-25T00:21:27.182Z,46.13
2019-02-25T00:36:52.186Z,43.83
2019-02-25T00:51:57.463Z,38.53
2019-02-25T01:07:03.068Z,37.83
2019-02-25T01:22:20.468Z,31.67
2019-02-25T01:37:26.183Z,35.30
2019-02-25T01:52:31.423Z,38.20
2019-02-25T02:07:36.593Z,33.43
2019-02-25T02:22:42.898Z,32.40
2019-02-25T02:37:49.100Z,36.50
2019-02-25T02:52:54.743Z,36.00
2019-02-25T03:08:00.694Z,34.67
2019-02-25T03:23:17.744Z,38.30
2019-02-25T03:38:23.145Z,32.80
2019-02-25T03:53:47.854Z,38.27
2019-02-25T04:09:06.302Z,42.90
2019-02-25T04:24:11.698Z,38.13
2019-02-25T04:39:17.260Z,42.80
2019-02-25T04:54:22.678Z,38.17
2019-02-25T05:09:28.259Z,46.67
2019-02-25T05:24:34.333Z,85.33
2019-02-25T05:39:39.546Z,122.00
2019-02-25T05:54:44.703Z,112.70
2019-02-25T06:09:49.793Z,116.27
2019-02-25T06:25:07.362Z,101.57
2019-02-25T06:40:15.842Z,119.27
2019-02-25T06:55:21.510Z,106.37
2019-02-25T07:10:28.382Z,115.87
2019-02-25T07:25:34.901Z,108.50
2019-02-25T07:41:01.375Z,101.43
2019-02-25T07:56:08.704Z,91.27
2019-02-25T08:11:34.913Z,83.50
2019-02-25T08:26:42.977Z,98.47
2019-02-25T08:41:47.905Z,84.47
2019-02-25T08:56:53.097Z,86.77
2019-02-25T09:12:17.614Z,79.43
2019-02-25T09:27:22.705Z,90.23
2019-02-25T09:42:47.254Z,93.00
2019-02-25T09:57:52.791Z,83.10
2019-02-25T10:12:58.072Z,91.70
2019-02-25T10:28:03.590Z,106.83
2019-02-25T10:43:08.735Z,97.93
2019-02-25T10:58:14.620Z,90.53
2019-02-25T11:13:20.533Z,76.83
2019-02-25T11:28:39.186Z,84.03
2019-02-25T11:43:48.108Z,71.17
2019-02-25T11:58:53.511Z,68.97
2019-02-25T12:13:58.982Z,64.13
2019-02-25T12:29:10.632Z,68.30
2019-02-25T12:44:10.381Z,47.23
2019-02-25T12:59:15.871Z,48.03
2019-02-25T13:14:21.022Z,30.27
2019-02-25T13:29:26.305Z,39.40
2019-02-25T13:44:31.352Z,37.37
2019-02-25T13:59:36.660Z,31.10
2019-02-25T14:14:54.434Z,29.10
2019-02-25T14:29:59.800Z,30.53
2019-02-25T14:45:26.395Z,29.97
2019-02-25T15:00:34.825Z,25.87
2019-02-25T15:15:39.180Z,24.63
2019-02-25T15:30:46.420Z,25.17
2019-02-25T15:45:51.268Z,24.17
2019-02-25T16:00:57.102Z,26.97
2019-02-25T16:16:02.320Z,23.57
2019-02-25T16:31:10.554Z,29.53
2019-02-25T16:46:38.730Z,32.33
2019-02-25T17:01:42.227Z,26.53
2019-02-25T17:16:47.396Z,27.60
2019-02-25T17:31:53.235Z,27.23
2019-02-25T17:47:00.193Z,27.77
2019-02-25T18:02:08.418Z,26.37
2019-02-25T18:17:16.682Z,26.87
2019-02-25T18:32:21.198Z,23.03
2019-02-25T18:47:27.328Z,23.13
2019-02-25T19:02:33.433Z,26.73
2019-02-25T19:17:39.749Z,26.67
2019-02-25T19:32:46.221Z,29.07
2019-02-25T19:47:51.304Z,26.13
2019-02-25T20:03:09.017Z,24.43
2019-02-25T20:18:26.416Z,20.60
2019-02-25T20:33:33.022Z,21.80
2019-02-25T20:48:38.632Z,24.10
2019-02-25T21:03:46.032Z,21.27
2019-02-25T21:18:51.278Z,23.73
2019-02-25T21:33:58.705Z,33.03
2019-02-25T21:49:06.010Z,23.43
2019-02-25T22:04:24.717Z,35.00
2019-02-25T22:19:41.546Z,36.83
2019-02-25T22:34:48.059Z,38.40
2019-02-25T22:49:52.893Z,52.43
2019-02-25T23:04:58.374Z,42.50
2019-02-25T23:20:05.679Z,45.33
2019-02-25T23:35:13.803Z,64.10
2019-02-25T23:50:18.501Z,52.83
